Terminal Aerodrome Forecast
Issued by NWS

Home | Current Version | Previous Version | Text Only | Print | Product List | Glossary On
Versions: 1 2 3 4 5 6 7 8 9 10 11 12 13 14 15 16 17 18 19 20 21 22 23 24 25 26 27 28 29 30 31 32 33 34 35 36 37 38 39 40
000
FTUS45 KPSR 031120
TAFIWA
TAF
KIWA 031120Z 0312/0412 12006KT P6SM FEW150 SCT250
     FM032200 24007KT P6SM FEW100 SCT150 BKN250
     FM040000 17010KT P6SM VCTS SCT100CB BKN200
     FM040400 15010KT P6SM VCSH BKN100 BKN250
      AMD LTD TO CLD VIS AND WIND TIL 031300=

USA.gov is the U.S. government's official web portal to all federal, state and local government web resources and services.